Time;durP1;ratioP1;P1;durP2;ratioP2;P2;SDS_P1;SDS_P2;PMS_P1;PMS_P2;Temp;Humidity;BMP_temperature;BMP_pressure;BME280_temperature;BME280_humidity;BME280_pressure;Samples;Min_cycle;Max_cycle;Signal;HPM_P1;HPM_P2
2021/03/10 00:00:23;;;;;;;;;;;;;;;20.14;33.97;101193.91;5077004;28;767;-56
2021/03/10 00:02:49;;;;;;;;;;;;;;;20.10;33.96;101188.13;5077585;28;1965;-54
2021/03/10 00:05:14;;;;;;;;;;;;;;;19.38;35.31;101183.03;5077581;28;755;-55
2021/03/10 00:07:40;;;;;;;;;;;;;;;19.33;35.65;101183.03;5077036;28;787;-56
2021/03/10 00:10:09;;;;;;;;;;;;;;;20.31;33.64;101180.53;5077552;28;1060;-55
2021/03/10 00:12:34;;;;;;;;;;;;;;;20.20;33.97;101178.94;5076248;28;955;-56
2021/03/10 00:18:12;;;;;;;;;;;;;;;19.39;35.43;101181.91;5065234;28;815;-58
2021/03/10 00:20:38;;;;;;;;;;;;;;;19.16;36.06;101175.09;5077178;28;922;-58
2021/03/10 00:23:03;;;;;;;;;;;;;;;20.29;33.99;101170.88;5076957;28;1909;-57
2021/03/10 00:25:29;;;;;;;;;;;;;;;20.17;33.84;101165.72;5077468;28;766;-58
2021/03/10 00:27:54;;;;;;;;;;;;;;;20.03;34.32;101168.31;5076085;28;971;-57
2021/03/10 00:30:20;;;;;;;;;;;;;;;19.72;34.71;101165.72;5076697;28;1182;-57
2021/03/10 00:32:45;;;;;;;;;;;;;;;19.14;36.06;101164.38;5076808;28;764;-55
2021/03/10 00:35:10;;;;;;;;;;;;;;;19.78;34.69;101169.28;5077010;28;763;-55
2021/03/10 00:37:36;;;;;;;;;;;;;;;20.43;33.40;101165.50;5076627;28;756;-54
2021/03/10 00:40:01;;;;;;;;;;;;;;;20.11;33.99;101155.84;5076704;28;795;-53
2021/03/10 00:42:27;;;;;;;;;;;;;;;19.94;34.52;101159.00;5058093;28;1905;-56
2021/03/10 00:44:52;;;;;;;;;;;;;;;19.52;35.13;101147.38;5076811;28;835;-53
2021/03/10 00:47:18;;;;;;;;;;;;;;;19.56;35.20;101150.38;5076788;28;764;-55
2021/03/10 00:49:43;;;;;;;;;;;;;;;20.44;33.36;101147.81;5076678;28;724;-58
2021/03/10 00:52:09;;;;;;;;;;;;;;;20.09;34.12;101138.72;5076545;28;779;-58
2021/03/10 00:54:34;;;;;;;;;;;;;;;20.15;34.06;101130.13;5076497;28;843;-52
2021/03/10 00:57:00;;;;;;;;;;;;;;;19.73;34.85;101122.44;5064382;28;880;-53
2021/03/10 00:59:25;;;;;;;;;;;;;;;19.21;35.94;101127.38;5056286;28;874;-52
2021/03/10 01:01:51;;;;;;;;;;;;;;;20.14;34.00;101122.13;5056693;28;755;-57
2021/03/10 01:04:17;;;;;;;;;;;;;;;20.32;33.67;101128.88;5056844;28;1895;-57
2021/03/10 01:06:42;;;;;;;;;;;;;;;20.06;33.98;101119.97;5056629;28;807;-57
2021/03/10 01:09:08;;;;;;;;;;;;;;;19.83;34.56;101116.84;5054606;28;1016;-57
2021/03/10 01:11:33;;;;;;;;;;;;;;;19.40;35.45;101120.13;5056666;28;962;-55
2021/03/10 01:13:59;;;;;;;;;;;;;;;19.15;35.99;101112.81;5056341;28;740;-57
2021/03/10 01:16:24;;;;;;;;;;;;;;;20.07;34.42;101111.41;5056301;28;784;-57
2021/03/10 01:18:49;;;;;;;;;;;;;;;20.34;33.78;101108.13;5056245;28;791;-58
2021/03/10 01:21:15;;;;;;;;;;;;;;;20.13;33.98;101107.50;5056325;28;806;-58
2021/03/10 01:23:40;;;;;;;;;;;;;;;19.97;34.56;101117.03;5056147;28;1909;-57
2021/03/10 01:26:06;;;;;;;;;;;;;;;19.39;35.46;101112.97;5059794;28;975;-56
2021/03/10 01:28:31;;;;;;;;;;;;;;;19.71;35.12;101103.38;5076303;28;818;-58
2021/03/10 01:30:57;;;;;;;;;;;;;;;20.48;33.52;101101.91;5056917;28;1056;-58
2021/03/10 01:33:23;;;;;;;;;;;;;;;20.00;34.26;101103.44;5076319;28;806;-54
2021/03/10 01:35:48;;;;;;;;;;;;;;;20.02;34.31;101097.66;5076020;28;787;-58
2021/03/10 01:38:14;;;;;;;;;;;;;;;19.58;35.25;101093.00;5075849;28;831;-58
2021/03/10 01:40:39;;;;;;;;;;;;;;;19.26;35.94;101089.59;5075258;28;1010;-58
2021/03/10 01:43:05;;;;;;;;;;;;;;;19.91;34.81;101079.53;5075820;28;1975;-54
2021/03/10 01:45:48;;;;;;;;;;;;;;;20.64;33.12;101077.72;5075875;28;759;-57
2021/03/10 01:48:19;;;;;;;;;;;;;;;20.07;34.34;101081.03;5075931;28;772;-56
2021/03/10 01:50:45;;;;;;;;;;;;;;;19.97;34.26;101079.19;5075813;28;816;-57
2021/03/10 01:53:11;;;;;;;;;;;;;;;19.34;35.59;101088.19;5079131;28;799;-58
2021/03/10 01:55:37;;;;;;;;;;;;;;;19.58;35.20;101076.44;5079840;28;942;-58
2021/03/10 01:58:02;;;;;;;;;;;;;;;20.59;33.59;101080.53;5079344;28;1001;-56
2021/03/10 02:00:29;;;;;;;;;;;;;;;20.08;34.46;101085.47;5079757;28;799;-55
2021/03/10 02:02:55;;;;;;;;;;;;;;;20.01;34.23;101073.94;5079971;28;1918;-51
2021/03/10 02:05:21;;;;;;;;;;;;;;;19.62;35.20;101074.75;5079848;28;735;-53
2021/03/10 02:08:05;;;;;;;;;;;;;;;19.13;36.21;101069.00;5061673;28;811;-49
2021/03/10 02:10:39;;;;;;;;;;;;;;;20.24;34.22;101068.75;5079662;28;740;-48
2021/03/10 02:13:08;;;;;;;;;;;;;;;20.26;33.73;101063.75;5079775;28;776;-51
2021/03/10 02:16:04;;;;;;;;;;;;;;;20.06;34.50;101065.59;5079490;28;812;-50
2021/03/10 02:19:02;;;;;;;;;;;;;;;19.43;35.62;101053.38;5079490;28;633;-51
2021/03/10 02:21:46;;;;;;;;;;;;;;;19.55;35.33;101046.69;5079330;28;803;-51
2021/03/10 02:24:33;;;;;;;;;;;;;;;20.53;33.46;101046.63;5079646;28;1910;-57
2021/03/10 02:27:15;;;;;;;;;;;;;;;20.06;34.47;101046.25;5067418;28;982;-50
2021/03/10 02:29:40;;;;;;;;;;;;;;;19.99;34.49;101037.50;5058951;28;1112;-49
2021/03/10 02:32:06;;;;;;;;;;;;;;;19.23;35.98;101048.00;5041360;28;879;-58
2021/03/10 02:34:31;;;;;;;;;;;;;;;19.58;35.37;101049.69;5059722;28;819;-52
2021/03/10 02:36:57;;;;;;;;;;;;;;;20.47;33.70;101042.28;5059337;28;740;-57
2021/03/10 02:39:23;;;;;;;;;;;;;;;20.06;34.30;101049.03;5059051;28;771;-56
2021/03/10 02:41:48;;;;;;;;;;;;;;;20.02;34.57;101047.97;5059633;28;963;-55
2021/03/10 02:44:14;;;;;;;;;;;;;;;19.65;35.23;101052.94;5041421;28;1961;-52
2021/03/10 02:46:54;;;;;;;;;;;;;;;19.05;36.45;101066.00;5024112;28;764;-52
2021/03/10 02:49:20;;;;;;;;;;;;;;;19.99;34.78;101060.44;5059076;28;764;-56
2021/03/10 02:51:45;;;;;;;;;;;;;;;20.73;33.13;101051.09;5040777;28;851;-54
2021/03/10 02:54:12;;;;;;;;;;;;;;;21.15;32.47;101051.38;5058926;28;815;-52
2021/03/10 02:56:38;;;;;;;;;;;;;;;20.58;33.50;101048.50;5059011;28;967;-56
2021/03/10 02:59:03;;;;;;;;;;;;;;;20.44;33.81;101049.22;5058617;28;919;-56
2021/03/10 03:01:29;;;;;;;;;;;;;;;19.85;34.70;101047.56;5058851;28;728;-56
2021/03/10 03:03:54;;;;;;;;;;;;;;;19.25;36.09;101056.78;5058487;28;1977;-56
2021/03/10 03:06:20;;;;;;;;;;;;;;;19.77;35.00;101046.25;5058487;28;803;-57
2021/03/10 03:08:45;;;;;;;;;;;;;;;20.54;33.70;101037.22;5058698;28;819;-56
2021/03/10 03:11:11;;;;;;;;;;;;;;;20.08;34.27;101035.78;5040942;28;1004;-56
2021/03/10 03:13:37;;;;;;;;;;;;;;;20.09;34.29;101037.41;5058520;28;731;-56
2021/03/10 03:16:33;;;;;;;;;;;;;;;19.67;35.37;101019.56;5040795;28;795;-52
2021/03/10 03:19:01;;;;;;;;;;;;;;;19.18;35.98;101024.06;5058169;28;839;-52
2021/03/10 03:21:26;;;;;;;;;;;;;;;20.11;34.67;101026.91;5058543;28;783;-58
2021/03/10 03:23:52;;;;;;;;;;;;;;;20.38;33.90;101028.25;5040676;28;1883;-53
2021/03/10 03:26:17;;;;;;;;;;;;;;;20.04;34.37;101023.66;5058675;28;1018;-51
2021/03/10 03:28:43;;;;;;;;;;;;;;;19.97;34.71;101023.19;5058328;28;760;-51
2021/03/10 03:31:09;;;;;;;;;;;;;;;19.14;36.14;101021.03;5025917;28;1318;-57
2021/03/10 03:33:34;;;;;;;;;;;;;;;19.53;35.67;101029.59;5038067;28;816;-53
2021/03/10 03:36:00;;;;;;;;;;;;;;;20.36;34.17;101033.28;5020292;28;881;-51
2021/03/10 03:38:26;;;;;;;;;;;;;;;20.08;34.32;101026.69;5020387;28;875;-52
2021/03/10 03:40:51;;;;;;;;;;;;;;;20.03;34.49;101022.00;5020409;28;964;-55
2021/03/10 03:43:17;;;;;;;;;;;;;;;19.48;35.58;101016.66;5020103;28;1910;-52
2021/03/10 03:49:17;;;;;;;;;;;;;;;20.20;34.33;101016.03;5037822;28;665;-55
2021/03/10 03:51:43;;;;;;;;;;;;;;;20.33;34.12;101023.63;5037658;28;908;-55
2021/03/10 03:54:08;;;;;;;;;;;;;;;20.11;34.32;101006.75;5037672;28;787;-54
2021/03/10 03:56:34;;;;;;;;;;;;;;;19.70;35.23;101018.13;5037989;28;959;-53
2021/03/10 03:58:59;;;;;;;;;;;;;;;19.43;35.67;101014.78;5037548;28;784;-56
2021/03/10 04:01:24;;;;;;;;;;;;;;;19.08;36.47;101021.34;5037593;28;768;-55
2021/03/10 04:03:50;;;;;;;;;;;;;;;20.07;34.79;101016.75;5019850;28;1950;-52
2021/03/10 04:06:16;;;;;;;;;;;;;;;20.66;33.61;101010.00;5037194;28;780;-60
2021/03/10 04:08:42;;;;;;;;;;;;;;;20.24;34.25;101019.03;5037111;28;811;-51
2021/03/10 04:11:08;;;;;;;;;;;;;;;20.07;34.69;101013.97;5019986;28;1027;-51
2021/03/10 04:13:33;;;;;;;;;;;;;;;19.63;35.29;101007.47;5037185;28;788;-64
2021/03/10 04:16:11;;;;;;;;;;;;;;;19.18;36.52;101017.69;5036674;28;801;-54
2021/03/10 04:18:38;;;;;;;;;;;;;;;19.95;34.64;101004.16;5037010;28;724;-51
2021/03/10 04:21:04;;;;;;;;;;;;;;;20.70;33.34;101006.66;5018474;28;1202;-55
2021/03/10 04:23:30;;;;;;;;;;;;;;;20.12;34.32;101009.22;5019314;28;1906;-65
2021/03/10 04:25:55;;;;;;;;;;;;;;;20.11;34.47;101004.81;5037470;28;1007;-49
2021/03/10 04:28:21;;;;;;;;;;;;;;;19.51;35.40;101001.47;5036716;28;748;-53
2021/03/10 04:30:46;;;;;;;;;;;;;;;19.19;36.50;100998.09;5048540;28;1049;-53
2021/03/10 04:33:12;;;;;;;;;;;;;;;20.06;34.39;100991.06;5057390;28;764;-56
2021/03/10 04:35:37;;;;;;;;;;;;;;;20.37;33.91;100987.97;5056632;28;748;-60
2021/03/10 04:38:03;;;;;;;;;;;;;;;20.07;34.49;100989.13;5056891;28;756;-54
2021/03/10 04:40:28;;;;;;;;;;;;;;;19.81;35.13;100984.69;5056996;28;736;-52
2021/03/10 04:42:54;;;;;;;;;;;;;;;19.24;36.03;100981.53;5038846;28;1988;-55
2021/03/10 04:45:19;;;;;;;;;;;;;;;19.89;35.09;100971.38;5039163;28;812;-52
2021/03/10 04:47:45;;;;;;;;;;;;;;;20.67;33.33;100972.13;5038833;28;879;-54
2021/03/10 04:50:11;;;;;;;;;;;;;;;20.20;34.42;100965.53;5056644;28;750;-48
2021/03/10 04:52:36;;;;;;;;;;;;;;;20.10;34.59;100967.28;5056737;28;843;-61
2021/03/10 04:55:02;;;;;;;;;;;;;;;19.50;35.45;100967.53;5056588;28;883;-57
2021/03/10 04:57:28;;;;;;;;;;;;;;;19.83;34.96;100974.16;5055211;28;871;-53
2021/03/10 04:59:53;;;;;;;;;;;;;;;20.51;33.92;100972.31;5056217;28;749;-49
2021/03/10 05:02:19;;;;;;;;;;;;;;;20.15;34.09;100967.22;5056239;28;779;-51
2021/03/10 05:04:45;;;;;;;;;;;;;;;20.04;34.37;100967.63;5056196;28;1901;-48
2021/03/10 05:07:11;;;;;;;;;;;;;;;19.51;35.56;100965.63;5056421;28;728;-53
2021/03/10 05:09:36;;;;;;;;;;;;;;;19.24;36.18;100959.50;5038777;28;773;-49
2021/03/10 05:12:02;;;;;;;;;;;;;;;20.16;34.45;100963.34;5049722;28;1030;-50
2021/03/10 05:14:27;;;;;;;;;;;;;;;20.42;33.80;100954.75;5076791;28;799;-54
2021/03/10 05:17:08;;;;;;;;;;;;;;;20.12;34.60;100953.19;5058606;28;795;-49
2021/03/10 05:19:46;;;;;;;;;;;;;;;19.72;35.08;100950.53;5076087;28;759;-47
2021/03/10 05:22:11;;;;;;;;;;;;;;;19.20;36.32;100949.34;5076431;28;775;-50
2021/03/10 05:24:37;;;;;;;;;;;;;;;19.86;35.02;100949.88;5076329;28;1910;-54
2021/03/10 05:27:02;;;;;;;;;;;;;;;20.54;33.83;100943.28;5075120;28;1022;-46
2021/03/10 05:29:27;;;;;;;;;;;;;;;19.99;34.50;100947.25;5076152;28;1072;-51
2021/03/10 05:31:53;;;;;;;;;;;;;;;20.07;34.62;100942.22;5076006;28;748;-45
2021/03/10 05:34:20;;;;;;;;;;;;;;;19.37;36.03;100949.72;5074833;28;786;-56
2021/03/10 05:36:45;;;;;;;;;;;;;;;19.31;36.00;100950.91;5076299;28;743;-55
2021/03/10 05:39:10;;;;;;;;;;;;;;;20.28;34.37;100953.84;5076194;28;759;-51
2021/03/10 05:41:36;;;;;;;;;;;;;;;20.47;33.65;100957.47;5074702;28;970;-58
2021/03/10 05:44:01;;;;;;;;;;;;;;;20.17;34.54;100962.25;5075900;28;1918;-50
2021/03/10 05:46:42;;;;;;;;;;;;;;;19.87;34.76;100965.34;5075905;28;771;-57
2021/03/10 05:49:23;;;;;;;;;;;;;;;19.03;36.51;100960.72;5076009;28;798;-46
2021/03/10 05:51:51;;;;;;;;;;;;;;;20.06;34.67;100968.97;5058106;28;840;-57
2021/03/10 05:54:17;;;;;;;;;;;;;;;20.42;34.04;100965.81;5075863;28;855;-58
2021/03/10 05:56:43;;;;;;;;;;;;;;;20.14;34.33;100962.00;5056844;28;1014;-49
2021/03/10 05:59:09;;;;;;;;;;;;;;;19.87;34.89;100962.56;5057863;28;797;-55
2021/03/10 06:01:34;;;;;;;;;;;;;;;19.30;36.25;100963.03;5058455;28;830;-56
2021/03/10 06:04:01;;;;;;;;;;;;;;;19.58;35.70;100971.63;5075441;28;1918;-47
2021/03/10 06:06:32;;;;;;;;;;;;;;;20.44;33.92;100963.59;5075696;28;763;-47
2021/03/10 06:09:08;;;;;;;;;;;;;;;20.07;34.35;100956.81;5076165;28;759;-48
2021/03/10 06:11:33;;;;;;;;;;;;;;;20.11;34.52;100968.91;5074487;28;978;-46
2021/03/10 06:13:59;;;;;;;;;;;;;;;19.72;35.27;100958.00;5040762;28;983;-55
2021/03/10 06:19:43;;;;;;;;;;;;;;;20.45;33.92;100961.63;5075270;28;756;-46
2021/03/10 06:22:09;;;;;;;;;;;;;;;20.07;34.69;100973.38;5076138;28;807;-46
2021/03/10 06:24:35;;;;;;;;;;;;;;;19.98;34.98;100978.72;5076025;28;1910;-46
2021/03/10 06:27:01;;;;;;;;;;;;;;;19.42;36.00;100971.75;5074339;28;1006;-45
2021/03/10 06:29:26;;;;;;;;;;;;;;;19.27;36.38;100988.41;5057805;28;1165;-45
2021/03/10 06:32:00;;;;;;;;;;;;;;;20.02;34.67;100978.13;5075496;28;808;-44
2021/03/10 06:34:25;;;;;;;;;;;;;;;20.55;33.76;100980.03;5075280;28;803;-57
2021/03/10 06:36:51;;;;;;;;;;;;;;;20.14;34.52;100975.81;5075612;28;748;-56
2021/03/10 06:39:29;;;;;;;;;;;;;;;19.85;35.11;100984.09;5059690;28;2080;-58
2021/03/10 06:41:55;;;;;;;;;;;;;;;19.33;36.09;100987.25;5078080;28;1006;-52
2021/03/10 06:44:20;;;;;;;;;;;;;;;19.78;35.26;100988.00;5093916;28;1917;-45
2021/03/10 06:49:50;;;;;;;;;;;;;;;20.00;34.68;100986.72;5098377;28;795;-56
2021/03/10 06:52:16;;;;;;;;;;;;;;;19.80;35.08;100974.75;5098594;28;826;-58
2021/03/10 06:54:58;;;;;;;;;;;;;;;19.26;36.17;100986.75;5064524;28;1042;-58
2021/03/10 06:57:24;;;;;;;;;;;;;;;20.06;34.86;100982.78;5083059;28;982;-55
2021/03/10 06:59:50;;;;;;;;;;;;;;;20.48;33.89;100978.44;5079085;28;827;-52
2021/03/10 07:02:16;;;;;;;;;;;;;;;20.15;34.49;100967.22;5060757;28;815;-50
2021/03/10 07:04:42;;;;;;;;;;;;;;;19.99;34.63;100976.78;5078707;28;1972;-55
2021/03/10 07:07:07;;;;;;;;;;;;;;;19.44;35.74;100968.72;5062852;28;846;-52
2021/03/10 07:09:33;;;;;;;;;;;;;;;19.75;35.26;100966.50;5040847;28;760;-46
2021/03/10 07:11:58;;;;;;;;;;;;;;;20.51;33.84;100969.56;5058756;28;998;-49
2021/03/10 07:14:24;;;;;;;;;;;;;;;20.06;34.67;100965.41;5040354;28;873;-46
2021/03/10 07:17:07;;;;;;;;;;;;;;;20.13;34.69;100960.34;5058253;28;822;-48
2021/03/10 07:19:36;;;;;;;;;;;;;;;19.34;36.25;100961.34;5042136;28;843;-52
2021/03/10 07:22:03;;;;;;;;;;;;;;;19.86;35.13;100953.47;5058422;28;806;-53
2021/03/10 07:24:28;;;;;;;;;;;;;;;20.60;33.72;100955.09;5040048;28;1902;-54
2021/03/10 07:26:54;;;;;;;;;;;;;;;20.11;34.73;100943.25;5058672;28;1132;-59
2021/03/10 07:29:20;;;;;;;;;;;;;;;19.96;34.85;100941.50;5058225;28;863;-49
2021/03/10 07:31:46;;;;;;;;;;;;;;;19.60;35.70;100947.31;5040270;28;1041;-51
2021/03/10 07:34:12;;;;;;;;;;;;;;;19.20;36.52;100939.13;5040310;28;899;-57
2021/03/10 07:36:38;;;;;;;;;;;;;;;20.25;34.51;100946.97;5040734;28;888;-49
2021/03/10 07:39:05;;;;;;;;;;;;;;;20.35;34.05;100940.50;5040387;28;1298;-58
2021/03/10 07:41:34;;;;;;;;;;;;;;;20.10;34.59;100945.19;5064798;28;1023;-54
2021/03/10 07:43:59;;;;;;;;;;;;;;;19.73;35.34;100940.34;5078106;28;1917;-56
2021/03/10 07:50:00;;;;;;;;;;;;;;;20.44;34.04;100944.25;5076744;28;614;-57
2021/03/10 07:52:27;;;;;;;;;;;;;;;20.27;34.26;100941.13;5078064;28;752;-53
2021/03/10 07:54:59;;;;;;;;;;;;;;;20.11;34.92;100941.31;5077313;28;851;-51
2021/03/10 07:57:25;;;;;;;;;;;;;;;19.59;35.67;100935.47;5076809;28;963;-50
2021/03/10 07:59:54;;;;;;;;;;;;;;;19.08;36.82;100939.50;5077766;28;755;-50
2021/03/10 08:02:20;;;;;;;;;;;;;;;20.08;34.59;100939.16;5077320;28;872;-48
2021/03/10 08:05:03;;;;;;;;;;;;;;;20.48;33.85;100936.19;5059667;28;1957;-48
2021/03/10 08:07:30;;;;;;;;;;;;;;;20.19;34.56;100931.56;5060270;28;751;-58
2021/03/10 08:09:55;;;;;;;;;;;;;;;19.87;35.22;100929.47;5059555;28;789;-58
2021/03/10 08:12:33;;;;;;;;;;;;;;;19.17;36.62;100928.66;5077104;28;1028;-58
2021/03/10 08:14:59;;;;;;;;;;;;;;;19.68;35.57;100930.16;5077735;28;763;-57
2021/03/10 08:17:26;;;;;;;;;;;;;;;20.61;33.98;100937.41;5058746;28;910;-54
2021/03/10 08:19:55;;;;;;;;;;;;;;;20.35;34.30;100935.78;5077835;28;792;-50
2021/03/10 08:22:20;;;;;;;;;;;;;;;20.24;34.61;100925.16;5077136;28;827;-50
2021/03/10 08:24:46;;;;;;;;;;;;;;;19.81;35.30;100918.47;5077039;28;1914;-49
2021/03/10 08:27:11;;;;;;;;;;;;;;;19.22;36.58;100905.75;5076550;28;978;-47
2021/03/10 08:29:44;;;;;;;;;;;;;;;20.22;34.68;100913.59;5055019;28;1108;-46
2021/03/10 08:32:11;;;;;;;;;;;;;;;20.53;33.88;100916.78;5056819;28;756;-52
2021/03/10 08:34:37;;;;;;;;;;;;;;;20.24;34.41;100916.88;5057241;28;748;-54
2021/03/10 08:37:08;;;;;;;;;;;;;;;20.12;34.59;100912.59;5038399;28;840;-61
2021/03/10 08:39:33;;;;;;;;;;;;;;;19.43;35.83;100907.22;5057030;28;796;-59
2021/03/10 08:41:59;;;;;;;;;;;;;;;19.63;35.94;100902.63;5057205;28;1014;-59
2021/03/10 08:44:24;;;;;;;;;;;;;;;20.44;34.32;100916.63;5057091;28;1910;-53
2021/03/10 08:47:24;;;;;;;;;;;;;;;20.40;34.12;100911.97;5056648;28;841;-49
2021/03/10 08:50:00;;;;;;;;;;;;;;;20.10;34.87;100895.50;5057390;28;756;-45
2021/03/10 08:52:26;;;;;;;;;;;;;;;19.72;35.63;100894.53;5056738;28;756;-51
2021/03/10 08:54:59;;;;;;;;;;;;;;;19.11;36.85;100897.56;5023042;28;1341;-54
2021/03/10 08:57:26;;;;;;;;;;;;;;;19.94;35.15;100885.78;5033464;28;1230;-56
2021/03/10 08:59:52;;;;;;;;;;;;;;;20.60;33.98;100895.13;5038922;28;1299;-45
2021/03/10 09:02:25;;;;;;;;;;;;;;;20.04;35.01;100887.59;5054933;28;955;-58
2021/03/10 09:04:50;;;;;;;;;;;;;;;20.05;34.68;100879.00;5056935;28;1909;-45
2021/03/10 09:07:17;;;;;;;;;;;;;;;19.51;35.91;100882.88;5054403;28;1222;-46
2021/03/10 09:09:44;;;;;;;;;;;;;;;19.05;36.84;100873.91;5038625;28;1344;-48
2021/03/10 09:12:10;;;;;;;;;;;;;;;19.93;35.15;100881.38;5045921;28;1213;-45
2021/03/10 09:14:44;;;;;;;;;;;;;;;20.38;34.29;100879.13;5039053;28;1245;-56
2021/03/10 09:17:25;;;;;;;;;;;;;;;20.05;34.75;100879.00;5039060;28;1349;-45
2021/03/10 09:19:51;;;;;;;;;;;;;;;19.87;35.15;100874.28;5022584;28;833;-55
2021/03/10 09:22:21;;;;;;;;;;;;;;;19.19;36.45;100873.25;5038900;28;1582;-55
2021/03/10 09:24:56;;;;;;;;;;;;;;;20.04;34.94;100869.09;5038261;28;1906;-51
2021/03/10 09:27:23;;;;;;;;;;;;;;;20.79;33.61;100873.06;5049773;28;1218;-47
2021/03/10 09:29:49;;;;;;;;;;;;;;;21.22;32.88;100869.31;5038144;28;1286;-49
2021/03/10 09:32:15;;;;;;;;;;;;;;;20.50;34.04;100856.63;5055944;28;1428;-46
2021/03/10 09:34:41;;;;;;;;;;;;;;;20.37;34.28;100849.88;5056378;28;822;-47
2021/03/10 09:37:07;;;;;;;;;;;;;;;19.54;35.67;100847.25;5055369;28;1209;-60
2021/03/10 09:39:39;;;;;;;;;;;;;;;19.15;36.68;100849.03;5054605;28;1322;-45
2021/03/10 09:42:04;;;;;;;;;;;;;;;20.35;34.53;100841.88;5057758;28;1337;-50
2021/03/10 09:44:49;;;;;;;;;;;;;;;20.44;34.39;100833.78;5058272;28;1984;-47
2021/03/10 09:47:26;;;;;;;;;;;;;;;20.20;34.61;100827.47;5075927;28;549;-45
2021/03/10 09:49:55;;;;;;;;;;;;;;;19.68;35.49;100825.31;5042397;28;1182;-47
2021/03/10 09:52:51;;;;;;;;;;;;;;;19.03;37.11;100831.19;5058340;28;816;-55
2021/03/10 09:55:19;;;;;;;;;;;;;;;20.27;34.48;100828.75;5066758;28;1195;-45
2021/03/10 09:58:02;;;;;;;;;;;;;;;20.27;34.50;100819.63;5039208;28;1395;-46
2021/03/10 10:00:30;;;;;;;;;;;;;;;20.10;34.71;100826.47;5038004;28;1270;-46
2021/03/10 10:02:55;;;;;;;;;;;;;;;19.70;35.70;100817.59;5056042;28;1976;-58
2021/03/10 10:05:25;;;;;;;;;;;;;;;19.19;36.94;100815.38;5038228;28;811;-62
2021/03/10 10:07:51;;;;;;;;;;;;;;;20.23;34.96;100816.66;5055351;28;701;-58
2021/03/10 10:10:17;;;;;;;;;;;;;;;20.47;34.21;100816.59;5038101;28;1316;-64
2021/03/10 10:12:48;;;;;;;;;;;;;;;20.14;35.09;100813.72;5039486;28;968;-59
2021/03/10 10:15:18;;;;;;;;;;;;;;;19.95;35.27;100799.09;5042104;28;756;-58
2021/03/10 10:18:00;;;;;;;;;;;;;;;19.35;36.70;100803.06;5059979;28;794;-57
2021/03/10 10:20:39;;;;;;;;;;;;;;;19.67;36.01;100801.63;5041752;28;1328;-58
2021/03/10 10:23:10;;;;;;;;;;;;;;;20.46;34.32;100801.13;5041792;28;1979;-58
2021/03/10 10:25:43;;;;;;;;;;;;;;;20.15;35.05;100796.06;5042113;28;1249;-59
2021/03/10 10:28:11;;;;;;;;;;;;;;;20.16;34.95;100788.59;5059216;28;797;-59
2021/03/10 10:30:37;;;;;;;;;;;;;;;19.56;36.13;100794.56;5030948;28;1060;-61
2021/03/10 10:33:03;;;;;;;;;;;;;;;19.19;36.87;100790.56;5022356;28;1429;-56
2021/03/10 10:35:35;;;;;;;;;;;;;;;20.13;35.05;100800.22;5023827;28;942;-59
2021/03/10 10:38:01;;;;;;;;;;;;;;;20.49;34.42;100803.28;5028269;28;1120;-60
2021/03/10 10:40:27;;;;;;;;;;;;;;;20.16;34.92;100805.16;5045135;28;833;-60
2021/03/10 10:42:53;;;;;;;;;;;;;;;20.02;35.31;100801.47;5037653;28;1967;-59
2021/03/10 10:45:19;;;;;;;;;;;;;;;19.26;36.58;100793.78;5020647;28;1254;-59
2021/03/10 10:48:13;;;;;;;;;;;;;;;19.89;35.70;100792.00;5020209;28;1096;-59
2021/03/10 10:50:53;;;;;;;;;;;;;;;20.64;34.04;100787.63;5025531;28;1250;-57
2021/03/10 10:53:21;;;;;;;;;;;;;;;20.13;34.95;100778.97;5043107;28;1236;-56
2021/03/10 10:55:47;;;;;;;;;;;;;;;20.06;35.24;100772.97;5039293;28;861;-57
2021/03/10 10:58:13;;;;;;;;;;;;;;;19.23;36.70;100761.28;5032579;28;931;-57
2021/03/10 11:00:39;;;;;;;;;;;;;;;19.65;36.03;100767.97;5046881;28;1149;-53
2021/03/10 11:03:10;;;;;;;;;;;;;;;20.53;34.40;100748.28;5043985;28;1975;-57
2021/03/10 11:05:44;;;;;;;;;;;;;;;20.16;35.09;100761.81;5020554;28;1104;-57
2021/03/10 11:08:12;;;;;;;;;;;;;;;20.03;35.37;100757.03;5038005;28;871;-55
2021/03/10 11:10:38;;;;;;;;;;;;;;;19.51;36.33;100762.34;5020091;28;874;-56
2021/03/10 11:13:05;;;;;;;;;;;;;;;19.66;36.02;100758.59;5050508;28;833;-57
2021/03/10 11:15:44;;;;;;;;;;;;;;;20.49;34.37;100756.34;5019538;28;1119;-57
2021/03/10 11:18:38;;;;;;;;;;;;;;;20.24;34.89;100756.72;5027210;28;1120;-60
2021/03/10 11:21:04;;;;;;;;;;;;;;;20.08;35.05;100758.91;5038002;28;974;-56
2021/03/10 11:23:30;;;;;;;;;;;;;;;19.40;36.48;100760.84;5020153;28;1980;-57
2021/03/10 11:25:56;;;;;;;;;;;;;;;19.35;36.70;100750.69;5042758;28;965;-59
2021/03/10 11:28:22;;;;;;;;;;;;;;;20.29;34.73;100748.38;5029352;28;1115;-58
2021/03/10 11:30:49;;;;;;;;;;;;;;;20.43;34.34;100742.94;5016073;28;1161;-58
2021/03/10 11:33:15;;;;;;;;;;;;;;;20.04;35.26;100736.59;5059285;28;1218;-58
2021/03/10 11:35:44;;;;;;;;;;;;;;;19.86;35.42;100729.13;5043734;28;1199;-58
2021/03/10 11:38:10;;;;;;;;;;;;;;;19.31;36.61;100730.34;5068400;28;848;-58
2021/03/10 11:40:36;;;;;;;;;;;;;;;20.16;35.01;100727.84;5039884;28;865;-58
2021/03/10 11:43:04;;;;;;;;;;;;;;;20.40;34.36;100732.47;5038850;28;1918;-59
2021/03/10 11:45:30;;;;;;;;;;;;;;;20.13;34.90;100732.06;5035327;28;906;-59
2021/03/10 11:50:49;;;;;;;;;;;;;;;19.35;36.58;100736.06;5034097;28;1246;-61
2021/03/10 11:53:14;;;;;;;;;;;;;;;20.26;34.81;100741.50;5047548;28;1229;-62
2021/03/10 11:55:40;;;;;;;;;;;;;;;20.52;34.30;100736.41;5016906;28;1011;-59
2021/03/10 11:58:06;;;;;;;;;;;;;;;20.21;34.93;100738.81;5038155;28;854;-57
2021/03/10 12:00:32;;;;;;;;;;;;;;;20.08;35.07;100737.63;5033890;28;1325;-59
2021/03/10 12:03:03;;;;;;;;;;;;;;;19.38;36.54;100730.78;5040122;28;1978;-56
2021/03/10 12:05:38;;;;;;;;;;;;;;;19.58;36.41;100726.16;5017676;28;1181;-60
2021/03/10 12:08:05;;;;;;;;;;;;;;;20.28;34.82;100708.88;5043432;28;878;-60
2021/03/10 12:10:37;;;;;;;;;;;;;;;20.26;34.75;100715.81;5050657;28;969;-59
2021/03/10 12:13:02;;;;;;;;;;;;;;;20.08;35.07;100710.03;5056145;28;938;-58
2021/03/10 12:15:28;;;;;;;;;;;;;;;19.56;36.03;100692.50;5053440;28;866;-56
2021/03/10 12:18:12;;;;;;;;;;;;;;;19.15;36.96;100686.41;5056751;28;1004;-56
2021/03/10 12:21:09;;;;;;;;;;;;;;;20.45;34.47;100686.25;5053829;28;745;-59
2021/03/10 12:23:35;;;;;;;;;;;;;;;20.25;34.78;100675.56;5046912;28;1981;-58
2021/03/10 12:26:01;;;;;;;;;;;;;;;20.04;35.39;100678.63;5012382;28;1593;-56
2021/03/10 12:28:28;;;;;;;;;;;;;;;19.70;35.87;100662.25;5035657;28;840;-59
2021/03/10 12:30:53;;;;;;;;;;;;;;;19.25;36.81;100670.84;5037023;28;1038;-58
2021/03/10 12:33:20;;;;;;;;;;;;;;;20.23;34.98;100661.22;5019007;28;1313;-58
2021/03/10 12:35:46;;;;;;;;;;;;;;;20.60;34.19;100665.03;5049880;28;863;-62
2021/03/10 12:38:12;;;;;;;;;;;;;;;20.12;35.03;100658.63;5032886;28;930;-59
2021/03/10 12:40:37;;;;;;;;;;;;;;;19.99;35.34;100654.69;5056081;28;888;-59
2021/03/10 12:43:02;;;;;;;;;;;;;;;19.40;36.63;100645.81;5047943;28;1973;-58
2021/03/10 12:45:28;;;;;;;;;;;;;;;19.88;35.55;100644.94;5054403;28;885;-55
2021/03/10 12:48:00;;;;;;;;;;;;;;;20.71;34.33;100643.59;5030735;28;902;-60
2021/03/10 12:50:58;;;;;;;;;;;;;;;20.14;35.05;100645.34;5041844;28;854;-60
2021/03/10 12:53:24;;;;;;;;;;;;;;;20.03;35.46;100643.06;5054186;28;853;-58
2021/03/10 12:55:49;;;;;;;;;;;;;;;19.41;36.57;100641.97;5048701;28;906;-59
2021/03/10 12:58:15;;;;;;;;;;;;;;;19.81;35.82;100639.78;5026815;28;1017;-60
2021/03/10 13:00:41;;;;;;;;;;;;;;;20.64;34.35;100628.19;5031714;28;845;-58
2021/03/10 13:03:06;;;;;;;;;;;;;;;20.20;35.22;100628.69;5057288;28;1914;-58
2021/03/10 13:05:32;;;;;;;;;;;;;;;20.08;35.24;100623.66;5054140;28;872;-59
2021/03/10 13:07:57;;;;;;;;;;;;;;;19.38;36.50;100615.00;5049140;28;821;-57
2021/03/10 13:10:23;;;;;;;;;;;;;;;19.26;37.16;100617.34;5011712;28;900;-58
2021/03/10 13:12:48;;;;;;;;;;;;;;;20.28;35.09;100614.19;5043141;28;983;-56
2021/03/10 13:15:14;;;;;;;;;;;;;;;20.40;34.46;100611.78;5051309;28;1126;-58
2021/03/10 13:21:14;;;;;;;;;;;;;;;19.59;36.32;100614.72;5075212;28;754;-59